sensor_id;sensor_type;location;lat;lon;timestamp;temperature;humidity
42187;DHT22;27858;51.414;0.018;2022-11-15T00:00:16;10.80;78.90
42187;DHT22;27858;51.414;0.018;2022-11-15T00:02:43;10.80;81.40
42187;DHT22;27858;51.414;0.018;2022-11-15T00:05:10;10.70;81.00
42187;DHT22;27858;51.414;0.018;2022-11-15T00:07:37;10.80;83.60
42187;DHT22;27858;51.414;0.018;2022-11-15T00:10:21;10.60;85.90
42187;DHT22;27858;51.414;0.018;2022-11-15T00:12:48;10.60;86.60
42187;DHT22;27858;51.414;0.018;2022-11-15T00:15:15;10.60;83.20
42187;DHT22;27858;51.414;0.018;2022-11-15T00:17:41;10.60;78.90
42187;DHT22;27858;51.414;0.018;2022-11-15T00:20:09;10.70;77.60
42187;DHT22;27858;51.414;0.018;2022-11-15T00:22:36;10.70;75.00
42187;DHT22;27858;51.414;0.018;2022-11-15T00:25:03;10.60;70.30
42187;DHT22;27858;51.414;0.018;2022-11-15T00:27:30;10.60;69.80
42187;DHT22;27858;51.414;0.018;2022-11-15T00:29:57;10.50;69.40
42187;DHT22;27858;51.414;0.018;2022-11-15T00:32:24;10.60;80.00
42187;DHT22;27858;51.414;0.018;2022-11-15T00:34:50;10.50;87.70
42187;DHT22;27858;51.414;0.018;2022-11-15T00:37:17;10.50;86.80
42187;DHT22;27858;51.414;0.018;2022-11-15T00:39:44;10.40;83.60
42187;DHT22;27858;51.414;0.018;2022-11-15T00:42:11;10.40;83.80
42187;DHT22;27858;51.414;0.018;2022-11-15T00:44:37;10.40;83.00
42187;DHT22;27858;51.414;0.018;2022-11-15T00:47:04;10.40;84.10
42187;DHT22;27858;51.414;0.018;2022-11-15T00:49:31;10.40;84.80
42187;DHT22;27858;51.414;0.018;2022-11-15T00:51:58;10.40;85.50
42187;DHT22;27858;51.414;0.018;2022-11-15T00:54:25;10.30;79.00
42187;DHT22;27858;51.414;0.018;2022-11-15T00:56:52;10.40;79.40
42187;DHT22;27858;51.414;0.018;2022-11-15T00:59:18;10.40;73.30
42187;DHT22;27858;51.414;0.018;2022-11-15T05:02:04;11.60;99.90
42187;DHT22;27858;51.414;0.018;2022-11-15T05:04:31;11.80;99.90
42187;DHT22;27858;51.414;0.018;2022-11-15T05:06:57;11.70;99.90
42187;DHT22;27858;51.414;0.018;2022-11-15T05:09:24;11.80;99.90
42187;DHT22;27858;51.414;0.018;2022-11-15T05:11:51;12.00;99.90
42187;DHT22;27858;51.414;0.018;2022-11-15T05:14:18;12.00;99.90
42187;DHT22;27858;51.414;0.018;2022-11-15T05:16:48;12.00;99.90
42187;DHT22;27858;51.414;0.018;2022-11-15T05:19:15;12.10;99.90
42187;DHT22;27858;51.414;0.018;2022-11-15T05:21:42;12.00;99.90
42187;DHT22;27858;51.414;0.018;2022-11-15T05:24:10;12.20;99.90
42187;DHT22;27858;51.414;0.018;2022-11-15T05:26:37;12.10;99.90
42187;DHT22;27858;51.414;0.018;2022-11-15T05:29:04;12.20;97.70
42187;DHT22;27858;51.414;0.018;2022-11-15T05:31:31;12.20;95.80
42187;DHT22;27858;51.414;0.018;2022-11-15T05:33:59;12.20;93.50
42187;DHT22;27858;51.414;0.018;2022-11-15T05:36:45;12.20;92.80
42187;DHT22;27858;51.414;0.018;2022-11-15T05:39:14;12.40;82.40
42187;DHT22;27858;51.414;0.018;2022-11-15T05:41:44;12.30;74.40
42187;DHT22;27858;51.414;0.018;2022-11-15T05:44:16;12.40;60.50
42187;DHT22;27858;51.414;0.018;2022-11-15T05:46:44;12.50;44.70
42187;DHT22;27858;51.414;0.018;2022-11-15T05:49:14;12.50;38.10
42187;DHT22;27858;51.414;0.018;2022-11-15T05:51:44;12.50;34.80
42187;DHT22;27858;51.414;0.018;2022-11-15T05:54:15;12.50;31.20
42187;DHT22;27858;51.414;0.018;2022-11-15T05:56:43;12.50;29.20
42187;DHT22;27858;51.414;0.018;2022-11-15T05:59:10;12.50;28.30
42187;DHT22;27858;51.414;0.018;2022-11-15T06:01:38;12.50;25.70
42187;DHT22;27858;51.414;0.018;2022-11-15T06:04:05;12.60;28.20
42187;DHT22;27858;51.414;0.018;2022-11-15T06:06:32;12.50;24.90
42187;DHT22;27858;51.414;0.018;2022-11-15T06:08:59;12.60;22.20
42187;DHT22;27858;51.414;0.018;2022-11-15T06:11:26;12.60;25.00
42187;DHT22;27858;51.414;0.018;2022-11-15T06:13:53;12.50;32.00
42187;DHT22;27858;51.414;0.018;2022-11-15T06:16:20;12.50;27.60
42187;DHT22;27858;51.414;0.018;2022-11-15T06:18:46;12.60;25.00
42187;DHT22;27858;51.414;0.018;2022-11-15T06:21:13;12.50;25.10
42187;DHT22;27858;51.414;0.018;2022-11-15T06:23:40;12.60;26.70
42187;DHT22;27858;51.414;0.018;2022-11-15T06:26:07;12.60;19.40
42187;DHT22;27858;51.414;0.018;2022-11-15T06:28:34;12.60;19.70
42187;DHT22;27858;51.414;0.018;2022-11-15T06:33:31;12.60;18.80
42187;DHT22;27858;51.414;0.018;2022-11-15T06:36:08;12.60;19.70
42187;DHT22;27858;51.414;0.018;2022-11-15T06:38:41;12.70;16.30
42187;DHT22;27858;51.414;0.018;2022-11-15T06:41:09;12.70;15.80
42187;DHT22;27858;51.414;0.018;2022-11-15T06:43:37;12.60;21.10
42187;DHT22;27858;51.414;0.018;2022-11-15T06:46:05;12.70;20.50
42187;DHT22;27858;51.414;0.018;2022-11-15T06:48:33;12.60;29.60
42187;DHT22;27858;51.414;0.018;2022-11-15T06:51:02;12.70;35.20
42187;DHT22;27858;51.414;0.018;2022-11-15T06:53:30;12.50;52.80
42187;DHT22;27858;51.414;0.018;2022-11-15T06:56:02;12.60;64.60
42187;DHT22;27858;51.414;0.018;2022-11-15T06:58:29;12.60;78.30
42187;DHT22;27858;51.414;0.018;2022-11-15T07:01:05;12.40;89.50
42187;DHT22;27858;51.414;0.018;2022-11-15T07:03:35;12.40;97.90
42187;DHT22;27858;51.414;0.018;2022-11-15T07:06:02;12.50;99.90
42187;DHT22;27858;51.414;0.018;2022-11-15T07:08:33;12.40;99.90
42187;DHT22;27858;51.414;0.018;2022-11-15T07:11:03;12.30;99.90
42187;DHT22;27858;51.414;0.018;2022-11-15T07:13:31;12.20;99.90
42187;DHT22;27858;51.414;0.018;2022-11-15T07:16:06;12.40;99.90
42187;DHT22;27858;51.414;0.018;2022-11-15T07:18:35;12.30;99.90
42187;DHT22;27858;51.414;0.018;2022-11-15T07:21:04;12.30;99.90
42187;DHT22;27858;51.414;0.018;2022-11-15T07:23:31;12.40;99.90
42187;DHT22;27858;51.414;0.018;2022-11-15T07:25:59;12.40;99.90
42187;DHT22;27858;51.414;0.018;2022-11-15T07:28:26;12.20;99.90
42187;DHT22;27858;51.414;0.018;2022-11-15T07:30:54;12.30;99.90
42187;DHT22;27858;51.414;0.018;2022-11-15T07:33:21;12.30;99.90
42187;DHT22;27858;51.414;0.018;2022-11-15T07:35:48;12.20;99.90
42187;DHT22;27858;51.414;0.018;2022-11-15T07:38:16;12.30;99.90
42187;DHT22;27858;51.414;0.018;2022-11-15T07:40:46;12.10;99.90
42187;DHT22;27858;51.414;0.018;2022-11-15T07:43:13;12.20;99.90
42187;DHT22;27858;51.414;0.018;2022-11-15T07:45:44;12.10;99.90
42187;DHT22;27858;51.414;0.018;2022-11-15T07:48:12;12.00;99.90
42187;DHT22;27858;51.414;0.018;2022-11-15T07:50:42;12.10;99.90
42187;DHT22;27858;51.414;0.018;2022-11-15T07:53:09;11.90;99.90
42187;DHT22;27858;51.414;0.018;2022-11-15T07:55:38;12.10;99.90
42187;DHT22;27858;51.414;0.018;2022-11-15T07:58:08;11.80;99.90
42187;DHT22;27858;51.414;0.018;2022-11-15T08:00:36;12.00;99.90
42187;DHT22;27858;51.414;0.018;2022-11-15T08:03:08;12.00;99.90
42187;DHT22;27858;51.414;0.018;2022-11-15T08:05:36;12.00;99.90
42187;DHT22;27858;51.414;0.018;2022-11-15T08:08:03;11.80;99.90
42187;DHT22;27858;51.414;0.018;2022-11-15T08:10:31;11.80;99.90
42187;DHT22;27858;51.414;0.018;2022-11-15T08:13:08;11.80;99.90
42187;DHT22;27858;51.414;0.018;2022-11-15T08:15:36;11.80;99.90
42187;DHT22;27858;51.414;0.018;2022-11-15T08:18:12;11.90;99.90
42187;DHT22;27858;51.414;0.018;2022-11-15T08:20:40;11.70;99.90
42187;DHT22;27858;51.414;0.018;2022-11-15T08:23:07;11.60;99.90
42187;DHT22;27858;51.414;0.018;2022-11-15T08:25:35;11.80;99.90
42187;DHT22;27858;51.414;0.018;2022-11-15T08:28:04;11.60;99.90
42187;DHT22;27858;51.414;0.018;2022-11-15T08:30:36;11.80;99.90
42187;DHT22;27858;51.414;0.018;2022-11-15T08:33:03;11.80;99.90
42187;DHT22;27858;51.414;0.018;2022-11-15T08:35:30;11.90;99.90
42187;DHT22;27858;51.414;0.018;2022-11-15T08:37:57;11.70;99.90
42187;DHT22;27858;51.414;0.018;2022-11-15T08:40:24;11.60;99.90
42187;DHT22;27858;51.414;0.018;2022-11-15T08:42:53;11.60;99.90
42187;DHT22;27858;51.414;0.018;2022-11-15T08:45:20;11.60;99.90
42187;DHT22;27858;51.414;0.018;2022-11-15T08:47:47;11.90;99.90
42187;DHT22;27858;51.414;0.018;2022-11-15T08:50:19;11.70;99.90
42187;DHT22;27858;51.414;0.018;2022-11-15T08:52:46;11.50;99.90
42187;DHT22;27858;51.414;0.018;2022-11-15T08:55:14;11.70;99.90
42187;DHT22;27858;51.414;0.018;2022-11-15T08:57:43;11.70;99.90
42187;DHT22;27858;51.414;0.018;2022-11-15T09:00:11;11.90;99.90
42187;DHT22;27858;51.414;0.018;2022-11-15T09:02:41;12.00;99.90
42187;DHT22;27858;51.414;0.018;2022-11-15T09:05:08;12.00;99.90
42187;DHT22;27858;51.414;0.018;2022-11-15T09:07:35;12.00;99.90
42187;DHT22;27858;51.414;0.018;2022-11-15T09:10:02;11.70;99.90
42187;DHT22;27858;51.414;0.018;2022-11-15T09:12:29;12.00;99.90
42187;DHT22;27858;51.414;0.018;2022-11-15T09:14:56;11.80;99.90
42187;DHT22;27858;51.414;0.018;2022-11-15T09:17:23;12.00;99.90
42187;DHT22;27858;51.414;0.018;2022-11-15T09:19:51;11.70;99.90
42187;DHT22;27858;51.414;0.018;2022-11-15T09:22:21;12.10;99.90
42187;DHT22;27858;51.414;0.018;2022-11-15T09:24:48;12.10;99.90
42187;DHT22;27858;51.414;0.018;2022-11-15T09:27:15;11.80;99.90
42187;DHT22;27858;51.414;0.018;2022-11-15T09:29:41;12.10;99.90
42187;DHT22;27858;51.414;0.018;2022-11-15T09:32:09;11.90;99.90
42187;DHT22;27858;51.414;0.018;2022-11-15T09:34:35;12.10;99.90
42187;DHT22;27858;51.414;0.018;2022-11-15T09:37:02;11.80;99.90
42187;DHT22;27858;51.414;0.018;2022-11-15T09:39:29;12.00;99.90
42187;DHT22;27858;51.414;0.018;2022-11-15T09:50:51;12.20;99.90
42187;DHT22;27858;51.414;0.018;2022-11-15T09:54:33;11.90;99.90
42187;DHT22;27858;51.414;0.018;2022-11-15T09:56:53;12.30;99.90
42187;DHT22;27858;51.414;0.018;2022-11-15T10:03:09;12.00;99.90
42187;DHT22;27858;51.414;0.018;2022-11-15T10:05:12;12.30;99.90
42187;DHT22;27858;51.414;0.018;2022-11-15T10:08:05;12.00;99.90
42187;DHT22;27858;51.414;0.018;2022-11-15T10:10:40;12.40;99.90
42187;DHT22;27858;51.414;0.018;2022-11-15T10:13:22;12.30;99.90
42187;DHT22;27858;51.414;0.018;2022-11-15T10:15:51;12.20;99.90
42187;DHT22;27858;51.414;0.018;2022-11-15T10:24:13;12.80;99.90
42187;DHT22;27858;51.414;0.018;2022-11-15T10:26:47;12.40;99.90
42187;DHT22;27858;51.414;0.018;2022-11-15T10:29:19;12.70;99.90
42187;DHT22;27858;51.414;0.018;2022-11-15T10:31:53;12.50;99.90
42187;DHT22;27858;51.414;0.018;2022-11-15T10:34:22;12.80;99.90
42187;DHT22;27858;51.414;0.018;2022-11-15T10:36:59;12.50;99.90
42187;DHT22;27858;51.414;0.018;2022-11-15T10:39:26;12.50;99.90
42187;DHT22;27858;51.414;0.018;2022-11-15T10:41:54;12.70;99.90
42187;DHT22;27858;51.414;0.018;2022-11-15T10:44:31;12.50;99.90
42187;DHT22;27858;51.414;0.018;2022-11-15T10:49:30;12.80;99.90
42187;DHT22;27858;51.414;0.018;2022-11-15T10:57:10;12.90;99.90
42187;DHT22;27858;51.414;0.018;2022-11-15T10:59:39;12.60;99.90
42187;DHT22;27858;51.414;0.018;2022-11-15T11:02:38;12.60;99.90
42187;DHT22;27858;51.414;0.018;2022-11-15T11:10:54;12.70;99.90
42187;DHT22;27858;51.414;0.018;2022-11-15T11:13:33;12.90;99.90
42187;DHT22;27858;51.414;0.018;2022-11-15T11:16:21;12.80;99.90
42187;DHT22;27858;51.414;0.018;2022-11-15T11:22:36;12.80;99.90
42187;DHT22;27858;51.414;0.018;2022-11-15T11:25:11;12.60;99.90
42187;DHT22;27858;51.414;0.018;2022-11-15T11:30:46;12.80;99.90
42187;DHT22;27858;51.414;0.018;2022-11-15T11:33:16;12.60;99.90
42187;DHT22;27858;51.414;0.018;2022-11-15T11:46:55;12.90;99.90
42187;DHT22;27858;51.414;0.018;2022-11-15T11:49:52;12.90;99.90
42187;DHT22;27858;51.414;0.018;2022-11-15T11:57:44;13.00;99.90
42187;DHT22;27858;51.414;0.018;2022-11-15T12:03:12;12.70;99.90
42187;DHT22;27858;51.414;0.018;2022-11-15T12:05:44;13.00;99.90
42187;DHT22;27858;51.414;0.018;2022-11-15T12:11:28;12.80;99.90
42187;DHT22;27858;51.414;0.018;2022-11-15T12:13:58;12.70;99.90
42187;DHT22;27858;51.414;0.018;2022-11-15T12:16:31;12.80;99.90
42187;DHT22;27858;51.414;0.018;2022-11-15T12:19:03;13.00;99.90
42187;DHT22;27858;51.414;0.018;2022-11-15T12:24:20;13.10;99.90
42187;DHT22;27858;51.414;0.018;2022-11-15T12:29:45;13.10;99.90
42187;DHT22;27858;51.414;0.018;2022-11-15T12:32:36;12.70;99.90
42187;DHT22;27858;51.414;0.018;2022-11-15T12:35:20;13.10;99.90
42187;DHT22;27858;51.414;0.018;2022-11-15T12:37:49;12.90;99.90
42187;DHT22;27858;51.414;0.018;2022-11-15T12:40:25;12.90;99.90
42187;DHT22;27858;51.414;0.018;2022-11-15T12:45:39;13.20;99.90
42187;DHT22;27858;51.414;0.018;2022-11-15T12:50:52;13.20;99.90
42187;DHT22;27858;51.414;0.018;2022-11-15T12:58:57;12.80;99.90
42187;DHT22;27858;51.414;0.018;2022-11-15T13:07:03;13.30;99.90
42187;DHT22;27858;51.414;0.018;2022-11-15T13:22:32;13.30;99.90
42187;DHT22;27858;51.414;0.018;2022-11-15T13:25:46;12.90;99.90
42187;DHT22;27858;51.414;0.018;2022-11-15T13:31:02;13.40;99.90
42187;DHT22;27858;51.414;0.018;2022-11-15T13:33:37;13.10;99.90
42187;DHT22;27858;51.414;0.018;2022-11-15T13:36:15;13.70;99.90
42187;DHT22;27858;51.414;0.018;2022-11-15T13:39:06;13.80;99.90
42187;DHT22;27858;51.414;0.018;2022-11-15T13:41:47;13.80;99.90
42187;DHT22;27858;51.414;0.018;2022-11-15T13:44:31;13.90;99.90
42187;DHT22;27858;51.414;0.018;2022-11-15T13:47:14;13.70;99.90
42187;DHT22;27858;51.414;0.018;2022-11-15T13:49:41;14.00;99.90
42187;DHT22;27858;51.414;0.018;2022-11-15T13:52:12;14.00;99.90
42187;DHT22;27858;51.414;0.018;2022-11-15T13:55:00;13.90;99.90
42187;DHT22;27858;51.414;0.018;2022-11-15T13:57:57;14.20;99.90
42187;DHT22;27858;51.414;0.018;2022-11-15T14:03:08;14.40;99.90
42187;DHT22;27858;51.414;0.018;2022-11-15T14:05:40;14.40;99.90
42187;DHT22;27858;51.414;0.018;2022-11-15T14:08:34;14.40;99.90
42187;DHT22;27858;51.414;0.018;2022-11-15T14:11:07;14.30;99.90
42187;DHT22;27858;51.414;0.018;2022-11-15T14:13:35;14.30;99.90
42187;DHT22;27858;51.414;0.018;2022-11-15T14:16:13;14.40;99.90
42187;DHT22;27858;51.414;0.018;2022-11-15T14:18:50;14.40;99.90
42187;DHT22;27858;51.414;0.018;2022-11-15T14:21:19;14.50;99.90
42187;DHT22;27858;51.414;0.018;2022-11-15T14:23:46;14.40;99.90
42187;DHT22;27858;51.414;0.018;2022-11-15T14:26:31;14.60;99.90
42187;DHT22;27858;51.414;0.018;2022-11-15T14:29:27;14.50;99.90
42187;DHT22;27858;51.414;0.018;2022-11-15T14:32:16;14.60;83.40
42187;DHT22;27858;51.414;0.018;2022-11-15T14:34:43;14.50;65.60
42187;DHT22;27858;51.414;0.018;2022-11-15T14:37:37;14.50;62.40
42187;DHT22;27858;51.414;0.018;2022-11-15T14:40:05;14.50;77.20
42187;DHT22;27858;51.414;0.018;2022-11-15T14:42:32;14.70;63.20
42187;DHT22;27858;51.414;0.018;2022-11-15T14:45:00;14.80;92.40
42187;DHT22;27858;51.414;0.018;2022-11-15T14:47:27;14.70;59.80
42187;DHT22;27858;51.414;0.018;2022-11-15T14:49:54;14.50;52.90
42187;DHT22;27858;51.414;0.018;2022-11-15T14:52:29;14.70;71.20
42187;DHT22;27858;51.414;0.018;2022-11-15T14:54:59;14.60;54.10
42187;DHT22;27858;51.414;0.018;2022-11-15T14:57:26;14.30;74.00
42187;DHT22;27858;51.414;0.018;2022-11-15T14:59:53;14.30;68.80
42187;DHT22;27858;51.414;0.018;2022-11-15T15:02:24;13.90;81.70
42187;DHT22;27858;51.414;0.018;2022-11-15T15:04:52;13.80;92.90
42187;DHT22;27858;51.414;0.018;2022-11-15T15:07:19;13.60;99.90
42187;DHT22;27858;51.414;0.018;2022-11-15T15:09:46;13.50;99.90
42187;DHT22;27858;51.414;0.018;2022-11-15T15:12:23;13.50;99.90
42187;DHT22;27858;51.414;0.018;2022-11-15T15:14:50;13.40;99.90
42187;DHT22;27858;51.414;0.018;2022-11-15T15:17:17;13.60;99.90
42187;DHT22;27858;51.414;0.018;2022-11-15T15:19:44;13.60;99.90
42187;DHT22;27858;51.414;0.018;2022-11-15T15:22:17;13.30;99.90
42187;DHT22;27858;51.414;0.018;2022-11-15T15:24:46;13.40;99.90
42187;DHT22;27858;51.414;0.018;2022-11-15T15:27:13;13.20;99.90
42187;DHT22;27858;51.414;0.018;2022-11-15T15:29:40;13.10;99.90
42187;DHT22;27858;51.414;0.018;2022-11-15T15:32:08;13.30;99.90
42187;DHT22;27858;51.414;0.018;2022-11-15T15:34:35;13.00;99.90
42187;DHT22;27858;51.414;0.018;2022-11-15T15:37:21;13.10;99.90
42187;DHT22;27858;51.414;0.018;2022-11-15T15:39:53;13.00;99.90
42187;DHT22;27858;51.414;0.018;2022-11-15T15:42:21;12.90;99.90
42187;DHT22;27858;51.414;0.018;2022-11-15T15:44:49;13.10;99.90
42187;DHT22;27858;51.414;0.018;2022-11-15T15:47:21;13.00;99.90
42187;DHT22;27858;51.414;0.018;2022-11-15T15:49:49;13.00;99.90
42187;DHT22;27858;51.414;0.018;2022-11-15T15:52:17;12.70;99.90
42187;DHT22;27858;51.414;0.018;2022-11-15T15:54:44;12.80;99.90
42187;DHT22;27858;51.414;0.018;2022-11-15T15:57:12;12.70;99.90
42187;DHT22;27858;51.414;0.018;2022-11-15T15:59:40;12.70;99.90
42187;DHT22;27858;51.414;0.018;2022-11-15T16:02:14;12.80;99.90
42187;DHT22;27858;51.414;0.018;2022-11-15T16:04:41;12.50;99.90
42187;DHT22;27858;51.414;0.018;2022-11-15T16:07:17;12.50;99.90
42187;DHT22;27858;51.414;0.018;2022-11-15T16:10:15;12.50;99.90
42187;DHT22;27858;51.414;0.018;2022-11-15T16:12:44;12.50;99.90
42187;DHT22;27858;51.414;0.018;2022-11-15T16:15:11;12.60;99.90
42187;DHT22;27858;51.414;0.018;2022-11-15T16:18:01;12.70;99.90
42187;DHT22;27858;51.414;0.018;2022-11-15T16:23:02;12.40;99.90
42187;DHT22;27858;51.414;0.018;2022-11-15T16:25:55;12.50;99.90
42187;DHT22;27858;51.414;0.018;2022-11-15T16:28:30;12.40;99.90
42187;DHT22;27858;51.414;0.018;2022-11-15T16:31:07;12.70;99.90
42187;DHT22;27858;51.414;0.018;2022-11-15T16:33:35;12.40;99.90
42187;DHT22;27858;51.414;0.018;2022-11-15T16:36:04;12.40;99.90
42187;DHT22;27858;51.414;0.018;2022-11-15T16:38:31;12.40;99.90
42187;DHT22;27858;51.414;0.018;2022-11-15T16:40:59;12.50;99.90
42187;DHT22;27858;51.414;0.018;2022-11-15T16:43:26;12.50;99.90
42187;DHT22;27858;51.414;0.018;2022-11-15T16:45:54;12.50;99.90
42187;DHT22;27858;51.414;0.018;2022-11-15T16:48:23;12.20;99.90
42187;DHT22;27858;51.414;0.018;2022-11-15T16:50:55;12.20;99.90
42187;DHT22;27858;51.414;0.018;2022-11-15T16:53:22;12.60;99.90
42187;DHT22;27858;51.414;0.018;2022-11-15T16:55:49;12.20;99.90
42187;DHT22;27858;51.414;0.018;2022-11-15T16:58:16;12.30;99.90
42187;DHT22;27858;51.414;0.018;2022-11-15T17:00:43;12.10;99.90
42187;DHT22;27858;51.414;0.018;2022-11-15T17:03:10;12.40;99.90
42187;DHT22;27858;51.414;0.018;2022-11-15T17:05:37;12.10;99.90
42187;DHT22;27858;51.414;0.018;2022-11-15T17:08:04;12.30;99.90
42187;DHT22;27858;51.414;0.018;2022-11-15T17:10:32;12.30;99.90
42187;DHT22;27858;51.414;0.018;2022-11-15T17:12:58;12.30;99.90
42187;DHT22;27858;51.414;0.018;2022-11-15T17:15:25;12.00;99.90
42187;DHT22;27858;51.414;0.018;2022-11-15T17:17:53;12.20;99.90
42187;DHT22;27858;51.414;0.018;2022-11-15T17:20:22;11.90;99.90
42187;DHT22;27858;51.414;0.018;2022-11-15T17:22:49;12.20;99.90
42187;DHT22;27858;51.414;0.018;2022-11-15T17:25:17;12.20;99.90
42187;DHT22;27858;51.414;0.018;2022-11-15T17:27:45;12.10;99.90
42187;DHT22;27858;51.414;0.018;2022-11-15T17:30:12;12.30;99.90
42187;DHT22;27858;51.414;0.018;2022-11-15T17:32:44;12.20;99.90
42187;DHT22;27858;51.414;0.018;2022-11-15T17:35:12;12.10;99.90
42187;DHT22;27858;51.414;0.018;2022-11-15T17:37:41;12.00;99.90
42187;DHT22;27858;51.414;0.018;2022-11-15T17:40:08;12.00;99.90
42187;DHT22;27858;51.414;0.018;2022-11-15T17:42:35;12.20;99.90
42187;DHT22;27858;51.414;0.018;2022-11-15T17:45:02;11.90;99.90
42187;DHT22;27858;51.414;0.018;2022-11-15T17:47:35;11.90;99.90
42187;DHT22;27858;51.414;0.018;2022-11-15T17:50:02;12.00;99.90
42187;DHT22;27858;51.414;0.018;2022-11-15T17:52:29;11.80;99.90
42187;DHT22;27858;51.414;0.018;2022-11-15T17:54:56;11.80;99.90
42187;DHT22;27858;51.414;0.018;2022-11-15T17:57:23;12.00;99.90
42187;DHT22;27858;51.414;0.018;2022-11-15T17:59:49;11.80;99.90
42187;DHT22;27858;51.414;0.018;2022-11-15T18:02:16;12.00;99.90
42187;DHT22;27858;51.414;0.018;2022-11-15T18:04:43;11.60;99.90
42187;DHT22;27858;51.414;0.018;2022-11-15T18:07:10;11.90;99.90
42187;DHT22;27858;51.414;0.018;2022-11-15T18:09:39;11.80;99.90
42187;DHT22;27858;51.414;0.018;2022-11-15T18:12:10;11.70;99.90
42187;DHT22;27858;51.414;0.018;2022-11-15T18:14:37;11.50;99.90
42187;DHT22;27858;51.414;0.018;2022-11-15T18:17:04;11.50;99.90
42187;DHT22;27858;51.414;0.018;2022-11-15T18:19:31;11.60;99.90
42187;DHT22;27858;51.414;0.018;2022-11-15T18:21:58;11.50;99.90
42187;DHT22;27858;51.414;0.018;2022-11-15T18:24:27;11.50;99.90
42187;DHT22;27858;51.414;0.018;2022-11-15T18:26:55;11.40;99.90
42187;DHT22;27858;51.414;0.018;2022-11-15T18:29:23;11.40;99.90
42187;DHT22;27858;51.414;0.018;2022-11-15T18:31:51;11.50;99.90
42187;DHT22;27858;51.414;0.018;2022-11-15T18:34:26;11.20;99.90
42187;DHT22;27858;51.414;0.018;2022-11-15T18:36:59;11.20;99.90
42187;DHT22;27858;51.414;0.018;2022-11-15T18:39:26;11.40;99.90
42187;DHT22;27858;51.414;0.018;2022-11-15T18:41:52;11.20;99.90
42187;DHT22;27858;51.414;0.018;2022-11-15T18:44:19;11.30;99.90
42187;DHT22;27858;51.414;0.018;2022-11-15T18:46:46;11.10;99.90
42187;DHT22;27858;51.414;0.018;2022-11-15T18:49:14;11.20;99.90
42187;DHT22;27858;51.414;0.018;2022-11-15T18:51:42;11.00;99.90
42187;DHT22;27858;51.414;0.018;2022-11-15T18:54:11;11.00;99.90
42187;DHT22;27858;51.414;0.018;2022-11-15T18:56:39;10.90;99.90
42187;DHT22;27858;51.414;0.018;2022-11-15T18:59:07;11.10;99.90
42187;DHT22;27858;51.414;0.018;2022-11-15T19:01:36;11.00;99.90
42187;DHT22;27858;51.414;0.018;2022-11-15T19:04:10;11.00;99.90
42187;DHT22;27858;51.414;0.018;2022-11-15T19:06:39;11.10;99.90
42187;DHT22;27858;51.414;0.018;2022-11-15T19:09:08;10.90;99.90
42187;DHT22;27858;51.414;0.018;2022-11-15T19:11:37;10.80;99.90
42187;DHT22;27858;51.414;0.018;2022-11-15T19:14:13;10.80;99.90
42187;DHT22;27858;51.414;0.018;2022-11-15T19:16:46;11.00;99.90
42187;DHT22;27858;51.414;0.018;2022-11-15T19:19:23;11.00;99.90
42187;DHT22;27858;51.414;0.018;2022-11-15T19:21:51;10.80;99.90
42187;DHT22;27858;51.414;0.018;2022-11-15T19:24:18;10.70;99.90
42187;DHT22;27858;51.414;0.018;2022-11-15T19:26:45;10.60;99.90
42187;DHT22;27858;51.414;0.018;2022-11-15T19:29:13;10.50;99.90
42187;DHT22;27858;51.414;0.018;2022-11-15T19:31:40;10.60;99.90
42187;DHT22;27858;51.414;0.018;2022-11-15T19:34:08;10.60;99.90
42187;DHT22;27858;51.414;0.018;2022-11-15T19:36:42;10.70;99.90
42187;DHT22;27858;51.414;0.018;2022-11-15T19:39:11;10.70;99.90
42187;DHT22;27858;51.414;0.018;2022-11-15T19:41:41;10.70;99.90
42187;DHT22;27858;51.414;0.018;2022-11-15T19:44:09;10.60;99.90
42187;DHT22;27858;51.414;0.018;2022-11-15T19:46:37;10.60;99.90
42187;DHT22;27858;51.414;0.018;2022-11-15T19:49:04;10.50;99.90
42187;DHT22;27858;51.414;0.018;2022-11-15T19:51:33;10.50;99.90
42187;DHT22;27858;51.414;0.018;2022-11-15T19:54:01;10.60;99.90
42187;DHT22;27858;51.414;0.018;2022-11-15T19:56:33;10.60;99.90
42187;DHT22;27858;51.414;0.018;2022-11-15T19:59:00;10.50;99.90
42187;DHT22;27858;51.414;0.018;2022-11-15T20:01:33;10.50;99.90
42187;DHT22;27858;51.414;0.018;2022-11-15T20:04:02;10.40;99.90
42187;DHT22;27858;51.414;0.018;2022-11-15T20:06:35;10.30;99.90
42187;DHT22;27858;51.414;0.018;2022-11-15T20:09:03;10.50;99.90
42187;DHT22;27858;51.414;0.018;2022-11-15T20:11:29;10.30;99.90
42187;DHT22;27858;51.414;0.018;2022-11-15T20:13:58;10.30;99.90
42187;DHT22;27858;51.414;0.018;2022-11-15T20:16:25;10.40;99.90
